sensor_id;sensor_type;location;lat;lon;timestamp;P1;durP1;ratioP1;P2;durP2;ratioP2
74626;SDS011;63132;52.268;5.192;2024-03-25T00:00:18;18.00;;;4.67;;
74626;SDS011;63132;52.268;5.192;2024-03-25T00:02:43;24.63;;;4.00;;
74626;SDS011;63132;52.268;5.192;2024-03-25T00:05:09;35.70;;;5.07;;
74626;SDS011;63132;52.268;5.192;2024-03-25T00:07:35;27.50;;;5.65;;
74626;SDS011;63132;52.268;5.192;2024-03-25T00:10:03;30.25;;;6.03;;
74626;SDS011;63132;52.268;5.192;2024-03-25T00:12:31;28.50;;;4.20;;
74626;SDS011;63132;52.268;5.192;2024-03-25T00:14:56;23.52;;;4.60;;
74626;SDS011;63132;52.268;5.192;2024-03-25T00:17:22;24.73;;;4.40;;
74626;SDS011;63132;52.268;5.192;2024-03-25T00:19:47;29.67;;;4.63;;
74626;SDS011;63132;52.268;5.192;2024-03-25T00:22:19;28.27;;;4.55;;
74626;SDS011;63132;52.268;5.192;2024-03-25T00:24:45;24.23;;;4.78;;
74626;SDS011;63132;52.268;5.192;2024-03-25T00:27:11;21.83;;;4.68;;
74626;SDS011;63132;52.268;5.192;2024-03-25T00:29:37;25.40;;;4.55;;
74626;SDS011;63132;52.268;5.192;2024-03-25T00:32:02;25.50;;;4.57;;
74626;SDS011;63132;52.268;5.192;2024-03-25T00:34:28;20.85;;;4.68;;
74626;SDS011;63132;52.268;5.192;2024-03-25T00:36:53;29.90;;;5.07;;
74626;SDS011;63132;52.268;5.192;2024-03-25T00:39:19;24.30;;;4.40;;
74626;SDS011;63132;52.268;5.192;2024-03-25T00:41:44;21.93;;;4.20;;
74626;SDS011;63132;52.268;5.192;2024-03-25T00:44:09;26.87;;;4.40;;
74626;SDS011;63132;52.268;5.192;2024-03-25T00:46:35;27.00;;;4.68;;
74626;SDS011;63132;52.268;5.192;2024-03-25T00:49:00;20.60;;;3.78;;
74626;SDS011;63132;52.268;5.192;2024-03-25T00:51:26;32.80;;;5.57;;
74626;SDS011;63132;52.268;5.192;2024-03-25T00:53:51;28.73;;;4.80;;
74626;SDS011;63132;52.268;5.192;2024-03-25T00:56:17;21.42;;;4.80;;
74626;SDS011;63132;52.268;5.192;2024-03-25T00:58:42;36.03;;;4.77;;
74626;SDS011;63132;52.268;5.192;2024-03-25T01:01:07;18.70;;;3.80;;
74626;SDS011;63132;52.268;5.192;2024-03-25T01:03:32;23.03;;;4.57;;
74626;SDS011;63132;52.268;5.192;2024-03-25T01:05:59;24.15;;;4.60;;
74626;SDS011;63132;52.268;5.192;2024-03-25T01:08:24;28.75;;;4.65;;
74626;SDS011;63132;52.268;5.192;2024-03-25T01:10:49;33.95;;;4.63;;
74626;SDS011;63132;52.268;5.192;2024-03-25T01:13:15;26.08;;;4.55;;
74626;SDS011;63132;52.268;5.192;2024-03-25T01:15:41;32.10;;;5.17;;
74626;SDS011;63132;52.268;5.192;2024-03-25T01:18:07;22.05;;;3.95;;
74626;SDS011;63132;52.268;5.192;2024-03-25T01:20:33;28.80;;;4.80;;
74626;SDS011;63132;52.268;5.192;2024-03-25T01:22:58;22.95;;;4.22;;
74626;SDS011;63132;52.268;5.192;2024-03-25T01:25:24;38.83;;;5.20;;
74626;SDS011;63132;52.268;5.192;2024-03-25T01:27:50;27.55;;;4.60;;
74626;SDS011;63132;52.268;5.192;2024-03-25T01:30:16;29.63;;;4.15;;
74626;SDS011;63132;52.268;5.192;2024-03-25T01:32:43;28.25;;;5.45;;
74626;SDS011;63132;52.268;5.192;2024-03-25T01:35:10;35.72;;;5.15;;
74626;SDS011;63132;52.268;5.192;2024-03-25T01:37:35;41.17;;;5.10;;
74626;SDS011;63132;52.268;5.192;2024-03-25T01:40:00;26.20;;;4.57;;
74626;SDS011;63132;52.268;5.192;2024-03-25T01:42:27;26.05;;;7.07;;
74626;SDS011;63132;52.268;5.192;2024-03-25T01:44:52;33.13;;;4.73;;
74626;SDS011;63132;52.268;5.192;2024-03-25T01:47:18;31.75;;;4.90;;
74626;SDS011;63132;52.268;5.192;2024-03-25T01:49:44;33.72;;;4.93;;
74626;SDS011;63132;52.268;5.192;2024-03-25T01:52:10;28.10;;;6.03;;
74626;SDS011;63132;52.268;5.192;2024-03-25T01:54:35;27.57;;;4.33;;
74626;SDS011;63132;52.268;5.192;2024-03-25T01:57:00;22.60;;;3.60;;
74626;SDS011;63132;52.268;5.192;2024-03-25T01:59:26;25.15;;;4.78;;
74626;SDS011;63132;52.268;5.192;2024-03-25T02:01:53;22.05;;;3.63;;
74626;SDS011;63132;52.268;5.192;2024-03-25T02:04:19;22.85;;;4.20;;
74626;SDS011;63132;52.268;5.192;2024-03-25T02:06:44;25.83;;;3.93;;
74626;SDS011;63132;52.268;5.192;2024-03-25T02:09:10;18.42;;;4.25;;
74626;SDS011;63132;52.268;5.192;2024-03-25T02:11:37;28.88;;;4.28;;
74626;SDS011;63132;52.268;5.192;2024-03-25T02:14:04;19.73;;;4.45;;
74626;SDS011;63132;52.268;5.192;2024-03-25T02:16:30;29.25;;;4.50;;
74626;SDS011;63132;52.268;5.192;2024-03-25T02:18:55;25.47;;;4.93;;
74626;SDS011;63132;52.268;5.192;2024-03-25T02:21:21;29.53;;;5.33;;
74626;SDS011;63132;52.268;5.192;2024-03-25T02:23:46;23.27;;;5.28;;
74626;SDS011;63132;52.268;5.192;2024-03-25T02:26:15;31.17;;;5.07;;
74626;SDS011;63132;52.268;5.192;2024-03-25T02:28:40;30.60;;;5.27;;
74626;SDS011;63132;52.268;5.192;2024-03-25T02:31:05;37.13;;;5.50;;
74626;SDS011;63132;52.268;5.192;2024-03-25T02:33:31;32.70;;;5.57;;
74626;SDS011;63132;52.268;5.192;2024-03-25T02:35:56;20.00;;;4.37;;
74626;SDS011;63132;52.268;5.192;2024-03-25T02:38:21;30.15;;;4.97;;
74626;SDS011;63132;52.268;5.192;2024-03-25T02:40:47;23.37;;;4.33;;
74626;SDS011;63132;52.268;5.192;2024-03-25T02:43:13;23.13;;;4.32;;
74626;SDS011;63132;52.268;5.192;2024-03-25T02:45:39;37.38;;;4.18;;
74626;SDS011;63132;52.268;5.192;2024-03-25T02:48:05;34.50;;;5.65;;
74626;SDS011;63132;52.268;5.192;2024-03-25T02:50:30;31.27;;;5.33;;
74626;SDS011;63132;52.268;5.192;2024-03-25T02:52:55;24.57;;;4.90;;
74626;SDS011;63132;52.268;5.192;2024-03-25T02:55:21;33.83;;;4.40;;
74626;SDS011;63132;52.268;5.192;2024-03-25T02:57:46;36.03;;;4.57;;
74626;SDS011;63132;52.268;5.192;2024-03-25T03:00:12;36.60;;;3.90;;
74626;SDS011;63132;52.268;5.192;2024-03-25T03:02:38;35.40;;;4.35;;
74626;SDS011;63132;52.268;5.192;2024-03-25T03:05:04;31.63;;;4.78;;
74626;SDS011;63132;52.268;5.192;2024-03-25T03:07:30;29.45;;;3.65;;
74626;SDS011;63132;52.268;5.192;2024-03-25T03:09:55;26.43;;;5.97;;
74626;SDS011;63132;52.268;5.192;2024-03-25T03:12:20;23.13;;;4.10;;
74626;SDS011;63132;52.268;5.192;2024-03-25T03:14:45;25.53;;;3.73;;
74626;SDS011;63132;52.268;5.192;2024-03-25T03:17:11;22.20;;;3.47;;
74626;SDS011;63132;52.268;5.192;2024-03-25T03:19:36;27.70;;;4.97;;
74626;SDS011;63132;52.268;5.192;2024-03-25T03:22:01;21.60;;;4.50;;
74626;SDS011;63132;52.268;5.192;2024-03-25T03:24:27;26.77;;;3.65;;
74626;SDS011;63132;52.268;5.192;2024-03-25T03:26:52;18.02;;;4.40;;
74626;SDS011;63132;52.268;5.192;2024-03-25T03:29:18;23.53;;;3.37;;
74626;SDS011;63132;52.268;5.192;2024-03-25T03:31:43;22.10;;;4.47;;
74626;SDS011;63132;52.268;5.192;2024-03-25T03:34:09;22.80;;;3.33;;
74626;SDS011;63132;52.268;5.192;2024-03-25T03:36:34;13.03;;;3.80;;
74626;SDS011;63132;52.268;5.192;2024-03-25T03:38:59;31.27;;;4.93;;
74626;SDS011;63132;52.268;5.192;2024-03-25T03:41:24;23.33;;;3.70;;
74626;SDS011;63132;52.268;5.192;2024-03-25T03:43:50;28.77;;;3.60;;
74626;SDS011;63132;52.268;5.192;2024-03-25T03:46:15;21.30;;;3.50;;
74626;SDS011;63132;52.268;5.192;2024-03-25T03:48:40;24.00;;;3.90;;
74626;SDS011;63132;52.268;5.192;2024-03-25T03:51:06;28.57;;;4.20;;
74626;SDS011;63132;52.268;5.192;2024-03-25T03:53:32;18.27;;;3.15;;
74626;SDS011;63132;52.268;5.192;2024-03-25T03:56:01;20.33;;;5.22;;
74626;SDS011;63132;52.268;5.192;2024-03-25T03:58:30;25.05;;;3.28;;
74626;SDS011;63132;52.268;5.192;2024-03-25T04:00:56;24.63;;;3.70;;
74626;SDS011;63132;52.268;5.192;2024-03-25T04:03:21;17.40;;;3.40;;
74626;SDS011;63132;52.268;5.192;2024-03-25T04:05:47;29.60;;;3.70;;
74626;SDS011;63132;52.268;5.192;2024-03-25T04:08:13;23.90;;;3.90;;
74626;SDS011;63132;52.268;5.192;2024-03-25T04:10:38;17.60;;;3.75;;
74626;SDS011;63132;52.268;5.192;2024-03-25T04:13:07;22.38;;;3.92;;
74626;SDS011;63132;52.268;5.192;2024-03-25T04:15:35;25.40;;;4.23;;
74626;SDS011;63132;52.268;5.192;2024-03-25T04:18:02;24.00;;;4.53;;
74626;SDS011;63132;52.268;5.192;2024-03-25T04:20:28;25.85;;;4.05;;
74626;SDS011;63132;52.268;5.192;2024-03-25T04:22:56;19.80;;;3.72;;
74626;SDS011;63132;52.268;5.192;2024-03-25T04:25:21;28.77;;;4.20;;
74626;SDS011;63132;52.268;5.192;2024-03-25T04:27:47;23.40;;;3.70;;
74626;SDS011;63132;52.268;5.192;2024-03-25T04:30:13;23.90;;;4.13;;
74626;SDS011;63132;52.268;5.192;2024-03-25T04:32:39;22.90;;;4.65;;
74626;SDS011;63132;52.268;5.192;2024-03-25T04:37:31;23.58;;;4.97;;
74626;SDS011;63132;52.268;5.192;2024-03-25T04:39:57;21.73;;;3.75;;
74626;SDS011;63132;52.268;5.192;2024-03-25T04:42:23;24.98;;;4.70;;
74626;SDS011;63132;52.268;5.192;2024-03-25T04:44:48;28.52;;;4.05;;
74626;SDS011;63132;52.268;5.192;2024-03-25T04:47:14;23.02;;;5.57;;
74626;SDS011;63132;52.268;5.192;2024-03-25T04:49:40;17.65;;;4.20;;
74626;SDS011;63132;52.268;5.192;2024-03-25T04:52:06;17.00;;;3.97;;
74626;SDS011;63132;52.268;5.192;2024-03-25T04:54:31;17.15;;;3.42;;
74626;SDS011;63132;52.268;5.192;2024-03-25T04:56:57;24.40;;;3.97;;
74626;SDS011;63132;52.268;5.192;2024-03-25T04:59:22;20.83;;;3.93;;
74626;SDS011;63132;52.268;5.192;2024-03-25T05:01:47;26.50;;;4.67;;
74626;SDS011;63132;52.268;5.192;2024-03-25T05:04:13;20.58;;;4.55;;
74626;SDS011;63132;52.268;5.192;2024-03-25T05:06:38;35.07;;;4.93;;
74626;SDS011;63132;52.268;5.192;2024-03-25T05:09:04;25.87;;;4.07;;
74626;SDS011;63132;52.268;5.192;2024-03-25T05:11:30;19.25;;;4.80;;
74626;SDS011;63132;52.268;5.192;2024-03-25T05:13:56;24.25;;;4.57;;
74626;SDS011;63132;52.268;5.192;2024-03-25T05:16:21;20.90;;;4.57;;
74626;SDS011;63132;52.268;5.192;2024-03-25T05:18:46;26.10;;;4.33;;
74626;SDS011;63132;52.268;5.192;2024-03-25T05:21:12;34.33;;;4.30;;
74626;SDS011;63132;52.268;5.192;2024-03-25T05:23:37;24.10;;;4.43;;
74626;SDS011;63132;52.268;5.192;2024-03-25T05:26:02;19.27;;;4.43;;
74626;SDS011;63132;52.268;5.192;2024-03-25T05:28:28;30.73;;;5.20;;
74626;SDS011;63132;52.268;5.192;2024-03-25T05:30:53;29.47;;;4.90;;
74626;SDS011;63132;52.268;5.192;2024-03-25T05:33:18;36.87;;;6.33;;
74626;SDS011;63132;52.268;5.192;2024-03-25T05:35:43;37.93;;;5.87;;
74626;SDS011;63132;52.268;5.192;2024-03-25T05:38:09;25.13;;;5.20;;
74626;SDS011;63132;52.268;5.192;2024-03-25T05:40:34;27.23;;;4.83;;
74626;SDS011;63132;52.268;5.192;2024-03-25T05:42:59;34.27;;;4.53;;
74626;SDS011;63132;52.268;5.192;2024-03-25T05:45:24;31.07;;;5.13;;
74626;SDS011;63132;52.268;5.192;2024-03-25T05:47:50;29.07;;;5.63;;
74626;SDS011;63132;52.268;5.192;2024-03-25T05:50:15;23.40;;;4.53;;
74626;SDS011;63132;52.268;5.192;2024-03-25T05:52:41;29.65;;;5.57;;
74626;SDS011;63132;52.268;5.192;2024-03-25T05:55:06;26.10;;;5.05;;
74626;SDS011;63132;52.268;5.192;2024-03-25T05:57:32;29.92;;;5.00;;
74626;SDS011;63132;52.268;5.192;2024-03-25T05:59:57;17.70;;;5.23;;
74626;SDS011;63132;52.268;5.192;2024-03-25T06:02:23;26.55;;;5.30;;
74626;SDS011;63132;52.268;5.192;2024-03-25T06:04:49;19.73;;;6.03;;
74626;SDS011;63132;52.268;5.192;2024-03-25T06:07:14;22.88;;;4.95;;
74626;SDS011;63132;52.268;5.192;2024-03-25T06:09:40;34.50;;;6.73;;
74626;SDS011;63132;52.268;5.192;2024-03-25T06:12:05;18.97;;;5.53;;
74626;SDS011;63132;52.268;5.192;2024-03-25T06:14:30;37.92;;;5.80;;
74626;SDS011;63132;52.268;5.192;2024-03-25T06:16:56;32.57;;;6.77;;
74626;SDS011;63132;52.268;5.192;2024-03-25T06:19:21;27.97;;;7.33;;
74626;SDS011;63132;52.268;5.192;2024-03-25T06:21:46;38.60;;;7.20;;
74626;SDS011;63132;52.268;5.192;2024-03-25T06:24:11;24.37;;;5.83;;
74626;SDS011;63132;52.268;5.192;2024-03-25T06:26:37;27.33;;;5.53;;
74626;SDS011;63132;52.268;5.192;2024-03-25T06:29:02;22.97;;;6.17;;
74626;SDS011;63132;52.268;5.192;2024-03-25T06:31:28;33.97;;;6.53;;
74626;SDS011;63132;52.268;5.192;2024-03-25T06:34:12;40.58;;;7.93;;
74626;SDS011;63132;52.268;5.192;2024-03-25T06:36:43;27.83;;;5.93;;
74626;SDS011;63132;52.268;5.192;2024-03-25T06:39:10;21.67;;;6.32;;
74626;SDS011;63132;52.268;5.192;2024-03-25T06:41:36;27.80;;;6.50;;
74626;SDS011;63132;52.268;5.192;2024-03-25T06:44:01;38.07;;;8.27;;
74626;SDS011;63132;52.268;5.192;2024-03-25T06:46:27;22.73;;;6.80;;
74626;SDS011;63132;52.268;5.192;2024-03-25T06:48:52;25.27;;;6.53;;
74626;SDS011;63132;52.268;5.192;2024-03-25T06:51:18;30.90;;;7.70;;
74626;SDS011;63132;52.268;5.192;2024-03-25T06:53:43;41.60;;;8.63;;
74626;SDS011;63132;52.268;5.192;2024-03-25T06:56:09;39.45;;;9.15;;
74626;SDS011;63132;52.268;5.192;2024-03-25T06:58:34;30.63;;;10.13;;
74626;SDS011;63132;52.268;5.192;2024-03-25T07:01:06;28.08;;;8.23;;
74626;SDS011;63132;52.268;5.192;2024-03-25T07:03:33;33.80;;;10.57;;
74626;SDS011;63132;52.268;5.192;2024-03-25T07:06:00;31.75;;;9.48;;
74626;SDS011;63132;52.268;5.192;2024-03-25T07:08:27;39.58;;;10.73;;
74626;SDS011;63132;52.268;5.192;2024-03-25T07:10:53;35.92;;;10.15;;
74626;SDS011;63132;52.268;5.192;2024-03-25T07:15:44;45.13;;;11.82;;
74626;SDS011;63132;52.268;5.192;2024-03-25T07:18:10;36.07;;;10.93;;
74626;SDS011;63132;52.268;5.192;2024-03-25T07:20:38;45.58;;;12.32;;
74626;SDS011;63132;52.268;5.192;2024-03-25T07:23:04;40.13;;;11.43;;
74626;SDS011;63132;52.268;5.192;2024-03-25T07:25:30;45.88;;;11.95;;
74626;SDS011;63132;52.268;5.192;2024-03-25T07:27:56;45.13;;;12.50;;
74626;SDS011;63132;52.268;5.192;2024-03-25T07:30:21;48.13;;;12.95;;
74626;SDS011;63132;52.268;5.192;2024-03-25T07:32:49;50.97;;;14.07;;
74626;SDS011;63132;52.268;5.192;2024-03-25T07:35:15;46.47;;;15.13;;
74626;SDS011;63132;52.268;5.192;2024-03-25T07:37:42;48.53;;;15.18;;
74626;SDS011;63132;52.268;5.192;2024-03-25T07:40:08;49.10;;;15.63;;
74626;SDS011;63132;52.268;5.192;2024-03-25T07:42:39;44.88;;;14.57;;
74626;SDS011;63132;52.268;5.192;2024-03-25T07:45:05;46.60;;;15.57;;
74626;SDS011;63132;52.268;5.192;2024-03-25T07:47:31;57.65;;;14.80;;
74626;SDS011;63132;52.268;5.192;2024-03-25T07:49:57;51.75;;;14.98;;
74626;SDS011;63132;52.268;5.192;2024-03-25T07:52:24;45.83;;;14.25;;
74626;SDS011;63132;52.268;5.192;2024-03-25T07:54:49;40.50;;;12.23;;
74626;SDS011;63132;52.268;5.192;2024-03-25T07:57:15;49.40;;;10.37;;
74626;SDS011;63132;52.268;5.192;2024-03-25T07:59:40;39.70;;;10.27;;
74626;SDS011;63132;52.268;5.192;2024-03-25T08:02:05;42.88;;;9.57;;
74626;SDS011;63132;52.268;5.192;2024-03-25T08:04:30;29.63;;;8.77;;
74626;SDS011;63132;52.268;5.192;2024-03-25T08:06:56;38.33;;;8.50;;
74626;SDS011;63132;52.268;5.192;2024-03-25T08:09:21;41.35;;;9.10;;
74626;SDS011;63132;52.268;5.192;2024-03-25T08:11:47;42.67;;;9.55;;
74626;SDS011;63132;52.268;5.192;2024-03-25T08:14:12;46.00;;;9.37;;
74626;SDS011;63132;52.268;5.192;2024-03-25T08:16:37;36.40;;;7.80;;
74626;SDS011;63132;52.268;5.192;2024-03-25T08:19:03;28.67;;;8.90;;
74626;SDS011;63132;52.268;5.192;2024-03-25T08:21:28;30.65;;;7.05;;
74626;SDS011;63132;52.268;5.192;2024-03-25T08:23:54;16.03;;;6.00;;
74626;SDS011;63132;52.268;5.192;2024-03-25T08:26:19;33.90;;;6.47;;
74626;SDS011;63132;52.268;5.192;2024-03-25T08:28:44;37.80;;;7.07;;
74626;SDS011;63132;52.268;5.192;2024-03-25T08:31:10;28.20;;;6.97;;
74626;SDS011;63132;52.268;5.192;2024-03-25T08:33:35;24.23;;;6.07;;
74626;SDS011;63132;52.268;5.192;2024-03-25T08:36:01;21.50;;;4.77;;
74626;SDS011;63132;52.268;5.192;2024-03-25T08:38:26;28.83;;;5.65;;
74626;SDS011;63132;52.268;5.192;2024-03-25T08:40:51;35.25;;;6.30;;
74626;SDS011;63132;52.268;5.192;2024-03-25T08:43:17;28.37;;;5.70;;
74626;SDS011;63132;52.268;5.192;2024-03-25T08:48:09;25.33;;;6.30;;
74626;SDS011;63132;52.268;5.192;2024-03-25T08:50:34;20.27;;;4.60;;
74626;SDS011;63132;52.268;5.192;2024-03-25T08:53:00;30.50;;;5.27;;
74626;SDS011;63132;52.268;5.192;2024-03-25T08:55:26;20.93;;;4.70;;
74626;SDS011;63132;52.268;5.192;2024-03-25T08:57:52;31.13;;;5.15;;
74626;SDS011;63132;52.268;5.192;2024-03-25T09:00:18;18.23;;;5.85;;
74626;SDS011;63132;52.268;5.192;2024-03-25T09:02:43;19.88;;;4.10;;
74626;SDS011;63132;52.268;5.192;2024-03-25T09:05:11;21.02;;;4.35;;
74626;SDS011;63132;52.268;5.192;2024-03-25T09:07:38;22.45;;;4.07;;
74626;SDS011;63132;52.268;5.192;2024-03-25T09:10:04;24.40;;;4.78;;
74626;SDS011;63132;52.268;5.192;2024-03-25T09:12:48;24.30;;;4.38;;
74626;SDS011;63132;52.268;5.192;2024-03-25T09:15:13;17.40;;;3.97;;
74626;SDS011;63132;52.268;5.192;2024-03-25T09:17:39;16.48;;;4.00;;
74626;SDS011;63132;52.268;5.192;2024-03-25T09:20:05;23.98;;;3.95;;
74626;SDS011;63132;52.268;5.192;2024-03-25T09:22:45;12.50;;;3.35;;
74626;SDS011;63132;52.268;5.192;2024-03-25T09:25:12;16.58;;;2.58;;
74626;SDS011;63132;52.268;5.192;2024-03-25T09:27:38;15.60;;;2.92;;
74626;SDS011;63132;52.268;5.192;2024-03-25T09:30:05;14.15;;;2.97;;
74626;SDS011;63132;52.268;5.192;2024-03-25T09:32:30;23.35;;;3.65;;
74626;SDS011;63132;52.268;5.192;2024-03-25T09:34:56;13.40;;;2.70;;
74626;SDS011;63132;52.268;5.192;2024-03-25T09:39:47;22.77;;;4.35;;
74626;SDS011;63132;52.268;5.192;2024-03-25T09:42:14;11.55;;;2.47;;
74626;SDS011;63132;52.268;5.192;2024-03-25T09:44:40;24.25;;;3.85;;
74626;SDS011;63132;52.268;5.192;2024-03-25T09:47:06;15.77;;;3.33;;
74626;SDS011;63132;52.268;5.192;2024-03-25T09:49:32;17.52;;;3.17;;
74626;SDS011;63132;52.268;5.192;2024-03-25T09:51:57;17.35;;;3.70;;
74626;SDS011;63132;52.268;5.192;2024-03-25T09:54:23;16.40;;;3.90;;
74626;SDS011;63132;52.268;5.192;2024-03-25T09:56:48;16.58;;;3.15;;
74626;SDS011;63132;52.268;5.192;2024-03-25T09:59:15;23.95;;;4.30;;
74626;SDS011;63132;52.268;5.192;2024-03-25T10:01:41;15.48;;;3.83;;
74626;SDS011;63132;52.268;5.192;2024-03-25T10:04:07;20.05;;;3.83;;
74626;SDS011;63132;52.268;5.192;2024-03-25T10:06:33;20.45;;;3.72;;
74626;SDS011;63132;52.268;5.192;2024-03-25T10:08:58;19.25;;;3.78;;
74626;SDS011;63132;52.268;5.192;2024-03-25T10:13:49;21.73;;;4.65;;
74626;SDS011;63132;52.268;5.192;2024-03-25T10:18:40;17.03;;;3.10;;
74626;SDS011;63132;52.268;5.192;2024-03-25T10:21:09;16.35;;;2.90;;
74626;SDS011;63132;52.268;5.192;2024-03-25T10:23:35;26.80;;;3.90;;
74626;SDS011;63132;52.268;5.192;2024-03-25T10:26:05;18.95;;;3.63;;
74626;SDS011;63132;52.268;5.192;2024-03-25T10:28:31;18.95;;;3.78;;
74626;SDS011;63132;52.268;5.192;2024-03-25T10:33:27;14.82;;;3.85;;
74626;SDS011;63132;52.268;5.192;2024-03-25T10:38:18;19.90;;;3.50;;
74626;SDS011;63132;52.268;5.192;2024-03-25T10:40:44;17.50;;;3.85;;
74626;SDS011;63132;52.268;5.192;2024-03-25T10:45:40;15.60;;;2.97;;
74626;SDS011;63132;52.268;5.192;2024-03-25T10:48:09;14.43;;;3.28;;
74626;SDS011;63132;52.268;5.192;2024-03-25T10:50:40;19.20;;;4.25;;
74626;SDS011;63132;52.268;5.192;2024-03-25T10:53:07;16.52;;;3.78;;
74626;SDS011;63132;52.268;5.192;2024-03-25T10:57:59;15.57;;;3.35;;
74626;SDS011;63132;52.268;5.192;2024-03-25T11:02:51;13.70;;;2.60;;
74626;SDS011;63132;52.268;5.192;2024-03-25T11:05:18;12.63;;;2.90;;
74626;SDS011;63132;52.268;5.192;2024-03-25T11:07:44;11.90;;;2.78;;
74626;SDS011;63132;52.268;5.192;2024-03-25T11:10:11;12.82;;;2.80;;
74626;SDS011;63132;52.268;5.192;2024-03-25T11:15:02;15.52;;;3.00;;
74626;SDS011;63132;52.268;5.192;2024-03-25T11:17:34;14.25;;;4.35;;
74626;SDS011;63132;52.268;5.192;2024-03-25T11:20:33;13.57;;;2.78;;
74626;SDS011;63132;52.268;5.192;2024-03-25T11:22:53;10.63;;;2.28;;
74626;SDS011;63132;52.268;5.192;2024-03-25T11:27:45;12.47;;;2.60;;
74626;SDS011;63132;52.268;5.192;2024-03-25T11:30:12;10.90;;;2.65;;
74626;SDS011;63132;52.268;5.192;2024-03-25T11:32:51;12.50;;;2.97;;
74626;SDS011;63132;52.268;5.192;2024-03-25T11:35:17;12.40;;;3.20;;
74626;SDS011;63132;52.268;5.192;2024-03-25T11:37:44;8.13;;;3.10;;
74626;SDS011;63132;52.268;5.192;2024-03-25T11:42:40;17.45;;;2.85;;
74626;SDS011;63132;52.268;5.192;2024-03-25T11:45:09;14.85;;;3.33;;
74626;SDS011;63132;52.268;5.192;2024-03-25T11:47:42;14.52;;;3.50;;
74626;SDS011;63132;52.268;5.192;2024-03-25T11:50:09;15.77;;;3.80;;
74626;SDS011;63132;52.268;5.192;2024-03-25T11:52:39;15.63;;;3.00;;
74626;SDS011;63132;52.268;5.192;2024-03-25T11:55:05;10.43;;;2.80;;
74626;SDS011;63132;52.268;5.192;2024-03-25T11:57:31;7.68;;;2.65;;
74626;SDS011;63132;52.268;5.192;2024-03-25T11:59:58;8.77;;;2.78;;
74626;SDS011;63132;52.268;5.192;2024-03-25T12:04:49;7.78;;;2.50;;
74626;SDS011;63132;52.268;5.192;2024-03-25T12:09:40;15.27;;;2.90;;
74626;SDS011;63132;52.268;5.192;2024-03-25T12:12:25;9.15;;;2.72;;
74626;SDS011;63132;52.268;5.192;2024-03-25T12:17:17;7.82;;;3.05;;
74626;SDS011;63132;52.268;5.192;2024-03-25T12:22:08;6.67;;;2.53;;
74626;SDS011;63132;52.268;5.192;2024-03-25T12:26:59;7.90;;;2.80;;
74626;SDS011;63132;52.268;5.192;2024-03-25T12:29:25;7.00;;;2.60;;
74626;SDS011;63132;52.268;5.192;2024-03-25T12:34:20;10.35;;;3.05;;
74626;SDS011;63132;52.268;5.192;2024-03-25T12:39:15;11.05;;;3.28;;
74626;SDS011;63132;52.268;5.192;2024-03-25T12:41:41;10.30;;;3.58;;
74626;SDS011;63132;52.268;5.192;2024-03-25T12:46:31;9.13;;;3.23;;
74626;SDS011;63132;52.268;5.192;2024-03-25T12:48:58;7.72;;;3.40;;
74626;SDS011;63132;52.268;5.192;2024-03-25T12:53:48;7.90;;;2.77;;
74626;SDS011;63132;52.268;5.192;2024-03-25T12:58:39;9.70;;;3.10;;
74626;SDS011;63132;52.268;5.192;2024-03-25T13:03:29;10.02;;;3.13;;
74626;SDS011;63132;52.268;5.192;2024-03-25T13:08:22;7.18;;;3.30;;
74626;SDS011;63132;52.268;5.192;2024-03-25T13:13:13;13.10;;;3.45;;
74626;SDS011;63132;52.268;5.192;2024-03-25T13:18:04;8.90;;;3.10;;
74626;SDS011;63132;52.268;5.192;2024-03-25T13:22:55;9.77;;;3.38;;
74626;SDS011;63132;52.268;5.192;2024-03-25T13:25:24;14.20;;;3.70;;
74626;SDS011;63132;52.268;5.192;2024-03-25T13:30:15;10.63;;;3.53;;
74626;SDS011;63132;52.268;5.192;2024-03-25T13:35:06;11.97;;;3.23;;
74626;SDS011;63132;52.268;5.192;2024-03-25T13:39:56;10.50;;;4.30;;
74626;SDS011;63132;52.268;5.192;2024-03-25T13:42:22;9.23;;;4.03;;
74626;SDS011;63132;52.268;5.192;2024-03-25T13:47:12;7.95;;;3.20;;
74626;SDS011;63132;52.268;5.192;2024-03-25T13:52:03;11.03;;;3.20;;
74626;SDS011;63132;52.268;5.192;2024-03-25T13:56:55;6.88;;;3.13;;
74626;SDS011;63132;52.268;5.192;2024-03-25T14:01:46;9.33;;;3.20;;
74626;SDS011;63132;52.268;5.192;2024-03-25T14:04:11;9.60;;;3.43;;
74626;SDS011;63132;52.268;5.192;2024-03-25T14:09:02;10.95;;;3.22;;
74626;SDS011;63132;52.268;5.192;2024-03-25T14:11:29;10.35;;;3.25;;
74626;SDS011;63132;52.268;5.192;2024-03-25T14:16:20;12.38;;;3.40;;
74626;SDS011;63132;52.268;5.192;2024-03-25T14:21:11;8.47;;;2.90;;
74626;SDS011;63132;52.268;5.192;2024-03-25T14:26:01;10.13;;;3.00;;
74626;SDS011;63132;52.268;5.192;2024-03-25T14:30:51;5.83;;;2.67;;
74626;SDS011;63132;52.268;5.192;2024-03-25T14:35:42;8.32;;;2.40;;
74626;SDS011;63132;52.268;5.192;2024-03-25T14:40:37;8.43;;;2.55;;
74626;SDS011;63132;52.268;5.192;2024-03-25T14:43:03;7.38;;;2.50;;
74626;SDS011;63132;52.268;5.192;2024-03-25T14:47:54;10.55;;;3.13;;
74626;SDS011;63132;52.268;5.192;2024-03-25T14:52:45;6.40;;;3.03;;
74626;SDS011;63132;52.268;5.192;2024-03-25T14:57:36;11.13;;;3.30;;
74626;SDS011;63132;52.268;5.192;2024-03-25T15:02:28;6.68;;;2.95;;
74626;SDS011;63132;52.268;5.192;2024-03-25T15:04:53;8.60;;;3.70;;
74626;SDS011;63132;52.268;5.192;2024-03-25T15:09:44;11.02;;;3.40;;
74626;SDS011;63132;52.268;5.192;2024-03-25T15:12:09;8.45;;;2.95;;
74626;SDS011;63132;52.268;5.192;2024-03-25T15:17:00;10.07;;;3.10;;
74626;SDS011;63132;52.268;5.192;2024-03-25T15:19:25;11.95;;;3.33;;
74626;SDS011;63132;52.268;5.192;2024-03-25T15:24:16;6.03;;;2.80;;
74626;SDS011;63132;52.268;5.192;2024-03-25T15:29:07;7.17;;;2.60;;
74626;SDS011;63132;52.268;5.192;2024-03-25T15:31:32;12.63;;;2.83;;
74626;SDS011;63132;52.268;5.192;2024-03-25T15:33:58;11.07;;;3.08;;
74626;SDS011;63132;52.268;5.192;2024-03-25T15:36:23;10.63;;;3.63;;
74626;SDS011;63132;52.268;5.192;2024-03-25T15:38:50;7.60;;;2.83;;
74626;SDS011;63132;52.268;5.192;2024-03-25T15:41:15;6.13;;;2.28;;
74626;SDS011;63132;52.268;5.192;2024-03-25T15:43:41;7.53;;;2.90;;
74626;SDS011;63132;52.268;5.192;2024-03-25T15:46:06;10.13;;;3.10;;
74626;SDS011;63132;52.268;5.192;2024-03-25T15:48:32;9.63;;;2.95;;
74626;SDS011;63132;52.268;5.192;2024-03-25T15:50:57;10.68;;;3.42;;
74626;SDS011;63132;52.268;5.192;2024-03-25T15:53:22;9.75;;;3.55;;
74626;SDS011;63132;52.268;5.192;2024-03-25T15:55:49;11.13;;;3.00;;
74626;SDS011;63132;52.268;5.192;2024-03-25T15:58:16;10.75;;;3.72;;
74626;SDS011;63132;52.268;5.192;2024-03-25T16:00:41;8.82;;;3.30;;
74626;SDS011;63132;52.268;5.192;2024-03-25T16:03:06;7.65;;;2.90;;
74626;SDS011;63132;52.268;5.192;2024-03-25T16:07:57;9.55;;;3.45;;
74626;SDS011;63132;52.268;5.192;2024-03-25T16:10:23;9.55;;;3.22;;
74626;SDS011;63132;52.268;5.192;2024-03-25T16:12:49;7.47;;;3.75;;
74626;SDS011;63132;52.268;5.192;2024-03-25T16:15:15;8.95;;;3.58;;
74626;SDS011;63132;52.268;5.192;2024-03-25T16:20:06;10.05;;;3.28;;
74626;SDS011;63132;52.268;5.192;2024-03-25T16:24:58;11.95;;;3.53;;
74626;SDS011;63132;52.268;5.192;2024-03-25T16:27:23;8.38;;;2.78;;
74626;SDS011;63132;52.268;5.192;2024-03-25T16:32:14;9.23;;;3.33;;
74626;SDS011;63132;52.268;5.192;2024-03-25T16:34:39;8.98;;;3.25;;
74626;SDS011;63132;52.268;5.192;2024-03-25T16:39:30;9.53;;;3.63;;
74626;SDS011;63132;52.268;5.192;2024-03-25T16:44:21;9.50;;;2.90;;
74626;SDS011;63132;52.268;5.192;2024-03-25T16:46:46;8.43;;;2.90;;